createdAt,value
2023-04-15T00:02:33.078Z,47.71
2023-04-15T00:05:03.283Z,49.05
2023-04-15T00:07:55.155Z,48.52
2023-04-15T00:10:38.330Z,47.68
2023-04-15T00:13:28.855Z,48.82
2023-04-15T00:15:55.656Z,48.71
2023-04-15T00:18:26.834Z,48.74
2023-04-15T00:21:07.555Z,48.98
2023-04-15T00:23:34.463Z,48.77
2023-04-15T00:29:00.009Z,49.21
2023-04-15T00:31:26.955Z,49.13
2023-04-15T00:34:11.311Z,49.22
2023-04-15T00:42:35.145Z,49.97
2023-04-15T00:45:09.521Z,49.89
2023-04-15T00:47:44.760Z,50.14
2023-04-15T00:50:21.174Z,50.03
2023-04-15T00:52:57.172Z,50.76
2023-04-15T00:55:26.167Z,50.41
2023-04-15T00:57:58.487Z,50.74
2023-04-15T01:00:33.504Z,51.03
2023-04-15T01:03:00.740Z,51.32
2023-04-15T01:05:28.728Z,51.62
2023-04-15T01:08:03.118Z,52.03
2023-04-15T01:10:33.780Z,51.91
2023-04-15T01:13:00.588Z,52.09
2023-04-15T01:15:28.115Z,52.19
2023-04-15T01:18:13.944Z,52.15
2023-04-15T01:20:54.392Z,52.21
2023-04-15T01:23:34.331Z,52.82
2023-04-15T01:26:10.240Z,52.49
2023-04-15T01:28:56.604Z,53.51
2023-04-15T01:31:23.570Z,54.28
2023-04-15T01:34:14.710Z,54.27
2023-04-15T01:36:44.580Z,53.77
2023-04-15T01:39:22.770Z,53.71
2023-04-15T01:42:04.428Z,53.50
2023-04-15T01:44:50.064Z,54.07
2023-04-15T01:47:45.525Z,54.52
2023-04-15T01:50:21.970Z,54.59
2023-04-15T01:52:57.188Z,55.18
2023-04-15T01:55:24.037Z,55.25
2023-04-15T01:58:00.544Z,55.47
2023-04-15T02:00:33.696Z,55.14
2023-04-15T02:03:00.778Z,54.66
2023-04-15T02:05:34.090Z,53.98
2023-04-15T02:08:07.818Z,54.56
2023-04-15T02:10:34.872Z,54.41
2023-04-15T02:13:02.015Z,54.14
2023-04-15T02:15:31.917Z,54.01
2023-04-15T02:17:59.467Z,54.37
2023-04-15T02:20:32.530Z,54.48
2023-04-15T02:23:11.997Z,54.56
2023-04-15T02:25:41.759Z,54.93
2023-04-15T02:28:08.680Z,55.37
2023-04-15T02:30:35.580Z,55.25
2023-04-15T02:33:03.431Z,55.32
2023-04-15T02:35:30.739Z,55.26
2023-04-15T02:37:57.703Z,55.20
2023-04-15T02:40:24.746Z,55.20
2023-04-15T02:42:51.795Z,56.19
2023-04-15T02:45:21.439Z,55.58
2023-04-15T02:47:57.522Z,55.29
2023-04-15T02:50:25.603Z,55.67
2023-04-15T02:52:54.860Z,55.84
2023-04-15T02:55:23.330Z,55.49
2023-04-15T02:57:50.329Z,55.52
2023-04-15T03:00:17.462Z,55.66
2023-04-15T03:02:46.445Z,55.32
2023-04-15T03:05:14.912Z,54.62
2023-04-15T03:07:41.836Z,54.87
2023-04-15T03:10:10.892Z,55.75
2023-04-15T03:12:37.988Z,55.55
2023-04-15T03:15:05.122Z,55.58
2023-04-15T03:17:42.759Z,55.58
2023-04-15T03:20:10.713Z,55.84
2023-04-15T03:22:43.958Z,55.84
2023-04-15T03:25:11.065Z,55.35
2023-04-15T03:27:38.776Z,54.94
2023-04-15T03:30:07.160Z,55.01
2023-04-15T03:32:38.398Z,55.22
2023-04-15T03:35:16.002Z,54.96
2023-04-15T03:37:50.914Z,55.16
2023-04-15T03:40:25.587Z,55.58
2023-04-15T03:43:00.077Z,56.35
2023-04-15T03:45:30.199Z,54.92
2023-04-15T03:50:32.798Z,54.21
2023-04-15T03:53:06.702Z,54.86
2023-04-15T03:55:42.772Z,54.19
2023-04-15T03:58:25.658Z,54.35
2023-04-15T04:00:55.137Z,53.74
2023-04-15T04:03:22.161Z,54.78
2023-04-15T04:05:49.339Z,55.18
2023-04-15T04:08:16.689Z,54.37
2023-04-15T04:10:53.620Z,54.73
2023-04-15T04:13:28.923Z,54.70
2023-04-15T04:15:56.506Z,53.46
2023-04-15T04:18:23.708Z,54.32
2023-04-15T04:20:59.919Z,55.06
2023-04-15T04:23:27.946Z,53.18
2023-04-15T04:25:54.997Z,54.33
2023-04-15T04:28:26.005Z,54.29
2023-04-15T04:30:56.016Z,54.38
2023-04-15T04:33:32.141Z,55.00
2023-04-15T04:36:10.162Z,53.96
2023-04-15T04:38:38.353Z,55.30
2023-04-15T04:44:39.578Z,53.67
2023-04-15T04:47:18.690Z,54.05
2023-04-15T04:49:45.641Z,54.99
2023-04-15T04:52:19.295Z,54.32
2023-04-15T04:54:46.616Z,54.49
2023-04-15T04:57:25.663Z,54.13
2023-04-15T04:59:59.426Z,52.95
2023-04-15T05:02:27.942Z,52.96
2023-04-15T05:04:55.071Z,54.11
2023-04-15T05:07:42.339Z,54.73
2023-04-15T05:10:09.737Z,54.39
2023-04-15T05:12:52.947Z,53.23
2023-04-15T05:15:23.032Z,54.10
2023-04-15T05:17:51.870Z,53.12
2023-04-15T05:20:18.968Z,54.02
2023-04-15T05:22:51.815Z,53.76
2023-04-15T05:25:29.543Z,52.89
2023-04-15T05:27:56.603Z,53.94
2023-04-15T05:30:31.660Z,53.35
2023-04-15T05:32:59.959Z,53.47
2023-04-15T05:35:28.536Z,53.07
2023-04-15T05:37:56.260Z,53.40
2023-04-15T05:40:30.557Z,52.60
2023-04-15T05:43:14.233Z,53.64
2023-04-15T05:45:53.886Z,53.46
2023-04-15T05:48:32.463Z,53.20
2023-04-15T05:51:03.794Z,52.06
2023-04-15T05:53:31.693Z,52.89
2023-04-15T05:55:59.824Z,51.73
2023-04-15T05:58:27.356Z,52.99
2023-04-15T06:00:57.840Z,53.22
2023-04-15T06:03:29.176Z,53.41
2023-04-15T06:06:10.535Z,52.01
2023-04-15T06:08:37.957Z,52.20
2023-04-15T06:11:05.242Z,52.55
2023-04-15T06:13:38.205Z,52.01
2023-04-15T06:16:21.404Z,52.63
2023-04-15T06:18:54.338Z,53.09
2023-04-15T06:21:21.857Z,52.31
2023-04-15T06:23:50.996Z,53.03
2023-04-15T06:26:18.081Z,52.17
2023-04-15T06:28:54.570Z,52.91
2023-04-15T06:31:21.805Z,52.31
2023-04-15T06:33:48.975Z,52.28
2023-04-15T06:36:16.540Z,52.91
2023-04-15T06:38:50.791Z,52.75
2023-04-15T06:41:21.436Z,51.79
2023-04-15T06:43:48.657Z,51.86
2023-04-15T06:46:15.792Z,52.21
2023-04-15T06:48:42.858Z,52.91
2023-04-15T06:51:10.087Z,52.27
2023-04-15T06:53:44.893Z,52.64
2023-04-15T06:56:11.916Z,53.19
2023-04-15T07:01:36.933Z,52.27
2023-04-15T07:04:04.029Z,52.33
2023-04-15T07:06:31.011Z,52.76
2023-04-15T07:08:57.987Z,52.45
2023-04-15T07:11:26.737Z,52.81
2023-04-15T07:13:56.704Z,53.12
2023-04-15T07:16:23.693Z,52.28
2023-04-15T07:18:54.084Z,52.24
2023-04-15T07:21:23.729Z,52.27
2023-04-15T07:23:52.288Z,51.79
2023-04-15T07:26:28.311Z,51.44
2023-04-15T07:28:58.284Z,52.04
2023-04-15T07:31:25.325Z,51.70
2023-04-15T07:33:58.892Z,51.81
2023-04-15T07:36:29.680Z,51.98
2023-04-15T07:39:07.759Z,51.16
2023-04-15T07:41:37.299Z,51.73
2023-04-15T07:44:07.834Z,51.50
2023-04-15T07:46:38.915Z,51.38
2023-04-15T07:49:06.013Z,51.18
2023-04-15T07:51:36.208Z,50.72
2023-04-15T07:54:06.177Z,51.13
2023-04-15T07:56:33.118Z,50.14
2023-04-15T07:59:04.947Z,50.47
2023-04-15T08:01:35.908Z,50.23
2023-04-15T08:04:04.178Z,48.93
2023-04-15T08:06:31.419Z,48.95
2023-04-15T08:08:58.406Z,50.20
2023-04-15T08:11:35.026Z,50.24
2023-04-15T08:14:02.455Z,50.14
2023-04-15T08:16:30.097Z,49.25
2023-04-15T08:19:04.255Z,49.55
2023-04-15T08:21:37.491Z,48.85
2023-04-15T08:24:04.441Z,48.59
2023-04-15T08:26:34.747Z,48.59
2023-04-15T08:29:05.414Z,49.33
2023-04-15T08:31:33.124Z,49.44
2023-04-15T08:34:04.704Z,48.70
2023-04-15T08:36:32.926Z,49.13
2023-04-15T08:39:05.239Z,48.40
2023-04-15T08:41:38.651Z,47.93
2023-04-15T08:44:06.971Z,48.58
2023-04-15T08:46:37.775Z,48.35
2023-04-15T08:49:15.120Z,48.12
2023-04-15T08:51:50.101Z,48.50
2023-04-15T08:54:25.088Z,48.41
2023-04-15T08:57:15.736Z,48.37
2023-04-15T09:00:05.783Z,48.22
2023-04-15T09:02:39.629Z,48.65
2023-04-15T09:05:08.486Z,48.90
2023-04-15T09:07:47.042Z,47.79
2023-04-15T09:10:23.763Z,47.98
2023-04-15T09:12:57.591Z,47.90
2023-04-15T09:15:34.109Z,49.01
2023-04-15T09:18:12.764Z,49.08
2023-04-15T09:20:49.307Z,48.42
2023-04-15T09:23:34.464Z,49.08
2023-04-15T09:26:12.377Z,48.93
2023-04-15T09:28:48.687Z,48.96
2023-04-15T09:31:41.629Z,49.27
2023-04-15T09:34:12.962Z,49.60
2023-04-15T09:36:56.602Z,50.20
2023-04-15T09:39:25.539Z,50.03
2023-04-15T09:42:09.908Z,48.34
2023-04-15T09:44:38.131Z,48.23
2023-04-15T09:47:05.297Z,48.31
2023-04-15T09:49:43.997Z,47.80
2023-04-15T09:52:18.819Z,47.68
2023-04-15T09:54:57.485Z,47.64
2023-04-15T09:57:25.133Z,47.72
2023-04-15T09:59:55.871Z,48.08
2023-04-15T10:02:26.343Z,48.15
2023-04-15T10:04:56.443Z,47.99
2023-04-15T10:07:27.566Z,47.95
2023-04-15T10:10:00.402Z,47.56
2023-04-15T10:12:32.178Z,46.69
2023-04-15T10:15:04.068Z,46.44
2023-04-15T10:17:39.118Z,45.92
2023-04-15T10:20:13.402Z,46.24
2023-04-15T10:22:49.300Z,45.19
2023-04-15T10:25:30.268Z,45.06
2023-04-15T10:28:03.790Z,45.18
2023-04-15T10:30:33.642Z,43.46
2023-04-15T10:33:15.720Z,43.53
2023-04-15T10:35:44.046Z,44.23
2023-04-15T10:38:47.848Z,44.71
2023-04-15T10:41:23.837Z,45.25
2023-04-15T10:43:56.108Z,45.77
2023-04-15T10:46:35.948Z,45.82
2023-04-15T10:49:51.299Z,45.66
2023-04-15T10:52:38.145Z,45.30
2023-04-15T10:55:23.100Z,44.76
2023-04-15T10:58:05.689Z,44.99
2023-04-15T11:00:39.912Z,44.48
2023-04-15T11:03:16.303Z,44.30
2023-04-15T11:06:07.280Z,45.04
2023-04-15T11:09:03.303Z,44.76
2023-04-15T11:12:14.983Z,44.02
2023-04-15T11:14:43.700Z,44.56
2023-04-15T11:17:11.572Z,44.92
2023-04-15T11:19:39.483Z,45.48
2023-04-15T11:22:21.298Z,43.65
2023-04-15T11:24:59.992Z,43.49
2023-04-15T11:27:31.880Z,43.66
2023-04-15T11:30:08.030Z,42.73
2023-04-15T11:32:35.373Z,42.81
2023-04-15T11:35:02.384Z,43.44
2023-04-15T11:37:32.134Z,42.55
2023-04-15T11:40:01.858Z,42.27
2023-04-15T11:42:49.592Z,40.12
2023-04-15T11:45:18.469Z,39.88
2023-04-15T11:47:54.188Z,40.43
2023-04-15T11:50:24.411Z,41.52
2023-04-15T11:53:01.727Z,41.92
2023-04-15T11:55:35.369Z,40.11
2023-04-15T11:58:33.041Z,39.90
2023-04-15T12:01:01.588Z,40.50
2023-04-15T12:03:45.350Z,41.00
2023-04-15T12:06:46.647Z,40.54
2023-04-15T12:09:37.951Z,39.36
2023-04-15T12:12:16.433Z,40.29
2023-04-15T12:14:43.748Z,41.22
2023-04-15T12:17:17.199Z,42.12
2023-04-15T12:19:57.744Z,42.91
2023-04-15T12:22:38.427Z,41.18
2023-04-15T12:25:05.858Z,41.73
2023-04-15T12:27:45.938Z,41.03
2023-04-15T12:30:16.375Z,39.24
2023-04-15T12:32:46.515Z,38.98
2023-04-15T12:35:13.749Z,40.06
2023-04-15T12:37:41.497Z,40.18
2023-04-15T12:40:09.270Z,40.10
2023-04-15T12:42:38.161Z,40.72
2023-04-15T12:45:05.716Z,41.41
2023-04-15T12:47:32.860Z,41.51
2023-04-15T12:50:00.040Z,41.57
2023-04-15T12:52:30.165Z,41.15
2023-04-15T12:54:57.189Z,40.58
2023-04-15T12:57:27.280Z,39.36
2023-04-15T12:59:58.417Z,39.84
2023-04-15T13:02:31.851Z,41.12
2023-04-15T13:04:59.438Z,43.13
2023-04-15T13:07:36.700Z,43.75
2023-04-15T13:10:03.866Z,43.58
2023-04-15T13:12:43.736Z,43.23
2023-04-15T13:15:16.466Z,43.99
2023-04-15T13:17:55.953Z,42.95
2023-04-15T13:20:32.514Z,43.34
2023-04-15T13:23:25.494Z,44.04
2023-04-15T13:25:52.702Z,44.88
2023-04-15T13:28:34.239Z,44.75
2023-04-15T13:31:18.086Z,45.27
2023-04-15T13:33:57.456Z,44.54
2023-04-15T13:36:34.898Z,44.60
2023-04-15T13:39:21.777Z,44.32
2023-04-15T13:42:10.751Z,45.54
2023-04-15T13:44:42.454Z,45.06
2023-04-15T13:47:10.825Z,43.90
2023-04-15T13:50:03.685Z,45.35
2023-04-15T13:52:30.724Z,45.43
2023-04-15T13:55:06.225Z,45.47
2023-04-15T13:57:47.110Z,45.44
2023-04-15T14:00:14.868Z,45.72
2023-04-15T14:02:42.717Z,45.33
2023-04-15T14:05:12.190Z,45.21
2023-04-15T14:07:39.422Z,44.86
2023-04-15T14:10:06.879Z,45.56
2023-04-15T14:12:36.943Z,45.79
2023-04-15T14:15:08.572Z,45.33
2023-04-15T14:17:35.797Z,45.63
2023-04-15T14:20:29.497Z,45.54
2023-04-15T14:22:57.596Z,45.22
2023-04-15T14:25:39.759Z,45.40
2023-04-15T14:28:09.682Z,46.39
2023-04-15T14:31:13.901Z,46.17
2023-04-15T14:34:00.271Z,46.12
2023-04-15T14:36:37.379Z,45.84
2023-04-15T14:39:08.765Z,46.04
2023-04-15T14:41:36.350Z,46.02
2023-04-15T14:44:04.014Z,45.89
2023-04-15T14:46:33.900Z,45.09
2023-04-15T14:49:04.233Z,45.04
2023-04-15T14:51:42.973Z,45.64
2023-04-15T14:54:27.568Z,45.11
2023-04-15T14:57:00.014Z,45.43
2023-04-15T14:59:27.987Z,45.62
2023-04-15T15:02:00.024Z,45.80
2023-04-15T15:04:53.964Z,46.21
2023-04-15T15:10:32.144Z,46.48
2023-04-15T15:13:13.012Z,46.36
2023-04-15T15:15:46.434Z,46.49
2023-04-15T15:18:22.154Z,46.60
2023-04-15T15:20:55.243Z,46.87
2023-04-15T15:23:22.333Z,46.55
2023-04-15T15:25:53.578Z,46.77
2023-04-15T15:28:22.174Z,46.82
2023-04-15T15:30:49.296Z,46.55
2023-04-15T15:33:18.666Z,46.42
2023-04-15T15:35:47.986Z,46.59
2023-04-15T15:38:19.456Z,47.09
2023-04-15T15:40:56.959Z,47.31
2023-04-15T15:43:33.332Z,47.23
2023-04-15T15:46:20.130Z,46.87
2023-04-15T15:49:30.490Z,47.22
2023-04-15T15:51:59.776Z,47.61
2023-04-15T15:54:35.626Z,47.48
2023-04-15T15:57:02.542Z,47.77
2023-04-15T15:59:29.539Z,47.98
2023-04-15T16:02:00.282Z,47.44
2023-04-15T16:04:30.456Z,47.57
2023-04-15T16:06:57.632Z,47.88
2023-04-15T16:09:37.934Z,47.60
2023-04-15T16:12:36.266Z,47.47
2023-04-15T16:15:08.451Z,47.61
2023-04-15T16:17:47.043Z,47.93
2023-04-15T16:20:14.120Z,47.68
2023-04-15T16:22:41.282Z,47.24
2023-04-15T16:25:08.651Z,47.58
2023-04-15T16:28:00.752Z,47.25
2023-04-15T16:33:39.604Z,47.57
2023-04-15T16:36:15.600Z,47.26
2023-04-15T16:38:51.602Z,47.24
2023-04-15T16:41:19.338Z,47.18
2023-04-15T16:43:58.456Z,46.65
2023-04-15T16:46:34.377Z,46.79
2023-04-15T16:49:11.768Z,45.66
2023-04-15T16:52:05.660Z,46.43
2023-04-15T16:54:43.726Z,45.56
2023-04-15T16:57:10.891Z,44.93
2023-04-15T16:59:46.203Z,44.10
2023-04-15T17:02:15.431Z,44.57
2023-04-15T17:07:26.247Z,44.94
2023-04-15T17:10:02.188Z,44.78
2023-04-15T17:12:30.520Z,44.40
2023-04-15T17:15:10.947Z,44.14
2023-04-15T17:17:54.750Z,45.29
2023-04-15T17:20:25.038Z,45.15
2023-04-15T17:23:08.206Z,45.46
2023-04-15T17:25:40.015Z,45.79
2023-04-15T17:28:07.378Z,45.70
2023-04-15T17:30:37.228Z,45.89
2023-04-15T17:33:50.511Z,45.98
2023-04-15T17:36:07.742Z,46.44
2023-04-15T17:38:44.379Z,46.40
2023-04-15T17:41:14.594Z,46.59
2023-04-15T17:43:44.397Z,46.64
2023-04-15T17:46:13.693Z,45.97
2023-04-15T17:48:57.066Z,46.42
2023-04-15T17:51:42.706Z,46.88
2023-04-15T17:54:10.043Z,46.90
2023-04-15T17:56:47.447Z,47.17
2023-04-15T17:59:38.320Z,47.40
2023-04-15T18:02:11.693Z,47.85
2023-04-15T18:04:39.119Z,47.73
2023-04-15T18:07:33.706Z,47.59
2023-04-15T18:10:20.936Z,47.80
2023-04-15T18:12:48.502Z,48.03
2023-04-15T18:15:15.636Z,48.05
2023-04-15T18:17:42.765Z,48.36
2023-04-15T18:21:03.077Z,48.23
2023-04-15T18:23:34.795Z,48.39
2023-04-15T18:26:13.863Z,48.67
2023-04-15T18:29:11.124Z,48.65
2023-04-15T18:31:45.872Z,48.40
2023-04-15T18:34:13.445Z,48.70
2023-04-15T18:36:45.384Z,48.96
2023-04-15T18:39:15.816Z,49.30
2023-04-15T18:41:51.743Z,49.37
2023-04-15T18:44:38.408Z,48.93
2023-04-15T18:47:15.477Z,48.90
2023-04-15T18:49:42.502Z,48.80
2023-04-15T18:52:17.865Z,49.38
2023-04-15T18:54:44.757Z,49.27
2023-04-15T18:57:11.797Z,49.69
2023-04-15T18:59:39.943Z,49.54
2023-04-15T19:02:08.604Z,50.60
2023-04-15T19:05:04.527Z,49.75
2023-04-15T19:07:32.152Z,50.15
2023-04-15T19:10:37.029Z,50.31
2023-04-15T19:13:22.808Z,50.25
2023-04-15T19:15:58.714Z,50.78
2023-04-15T19:18:29.945Z,51.20
2023-04-15T19:21:01.012Z,51.50
2023-04-15T19:23:31.698Z,51.36
2023-04-15T19:25:59.150Z,51.71
2023-04-15T19:28:29.581Z,51.05
2023-04-15T19:31:12.136Z,51.14
2023-04-15T19:36:36.566Z,52.76
2023-04-15T19:39:03.887Z,53.06
2023-04-15T19:41:31.152Z,54.03
2023-04-15T19:44:29.238Z,52.08
2023-04-15T19:47:16.493Z,53.51
2023-04-15T19:50:04.809Z,53.41
2023-04-15T19:52:31.752Z,52.18
2023-04-15T19:55:10.192Z,55.31
2023-04-15T19:58:07.996Z,53.83
2023-04-15T20:00:47.324Z,54.06
2023-04-15T20:03:25.398Z,54.00
2023-04-15T20:06:07.577Z,52.62
2023-04-15T20:08:40.306Z,54.45
2023-04-15T20:11:26.150Z,53.70
2023-04-15T20:14:12.467Z,54.23
2023-04-15T20:16:57.532Z,52.81
2023-04-15T20:19:35.974Z,52.82
2023-04-15T20:22:03.016Z,53.18
2023-04-15T20:24:30.847Z,53.22
2023-04-15T20:26:57.962Z,53.92
2023-04-15T20:29:25.134Z,56.64
2023-04-15T20:35:00.528Z,55.82
2023-04-15T20:37:28.040Z,56.44
2023-04-15T20:40:00.060Z,55.88
2023-04-15T20:42:48.581Z,57.62
2023-04-15T20:45:21.085Z,57.93
2023-04-15T20:48:03.834Z,57.54
2023-04-15T20:50:32.406Z,57.65
2023-04-15T20:53:05.118Z,57.06
2023-04-15T20:55:32.299Z,58.08
2023-04-15T20:57:59.531Z,58.02
2023-04-15T21:00:33.548Z,57.20
2023-04-15T21:03:00.741Z,58.00
2023-04-15T21:05:27.860Z,59.97
2023-04-15T21:08:08.132Z,59.89
2023-04-15T21:10:37.401Z,58.18
2023-04-15T21:13:13.596Z,59.22
2023-04-15T21:15:54.497Z,59.48
2023-04-15T21:18:22.581Z,60.03
2023-04-15T21:21:22.220Z,59.76
2023-04-15T21:26:57.747Z,58.39
2023-04-15T21:29:37.095Z,57.57
2023-04-15T21:32:08.469Z,58.45
2023-04-15T21:34:51.515Z,57.87
2023-04-15T21:37:30.617Z,59.52
2023-04-15T21:40:06.701Z,60.43
2023-04-15T21:43:04.621Z,60.19
2023-04-15T21:45:31.574Z,59.95
2023-04-15T21:48:08.225Z,59.92
2023-04-15T21:50:45.816Z,62.09
2023-04-15T21:53:54.481Z,63.56
2023-04-15T21:56:32.313Z,64.85
2023-04-15T21:59:32.342Z,65.98
2023-04-15T22:02:01.230Z,65.71
2023-04-15T22:04:51.903Z,65.46
2023-04-15T22:07:49.782Z,65.66
2023-04-15T22:10:38.137Z,66.15
2023-04-15T22:13:09.083Z,65.37
2023-04-15T22:15:37.747Z,65.47
2023-04-15T22:18:05.949Z,66.13
2023-04-15T22:20:33.069Z,65.33
2023-04-15T22:23:00.112Z,66.00
2023-04-15T22:25:31.976Z,67.17
2023-04-15T22:27:59.024Z,67.90
2023-04-15T22:30:28.057Z,65.62
2023-04-15T22:32:57.946Z,66.32
2023-04-15T22:35:25.268Z,67.09
2023-04-15T22:38:06.210Z,67.29
2023-04-15T22:40:36.421Z,67.19
2023-04-15T22:43:05.871Z,67.44
2023-04-15T22:45:32.884Z,67.89
2023-04-15T22:48:12.211Z,66.44
2023-04-15T22:50:54.764Z,67.61
2023-04-15T22:54:09.746Z,67.48
2023-04-15T22:56:39.515Z,67.13
2023-04-15T22:59:08.575Z,67.75
2023-04-15T23:01:46.715Z,68.22
2023-04-15T23:04:25.669Z,67.85
2023-04-15T23:07:01.114Z,67.84
2023-04-15T23:09:28.090Z,68.29
2023-04-15T23:11:58.193Z,68.43
2023-04-15T23:14:26.554Z,67.98
2023-04-15T23:16:53.556Z,67.83
2023-04-15T23:19:26.625Z,67.98
2023-04-15T23:22:07.014Z,69.35
2023-04-15T23:25:07.122Z,68.93
2023-04-15T23:27:34.261Z,69.66
2023-04-15T23:30:01.203Z,68.97
2023-04-15T23:32:31.255Z,68.80
2023-04-15T23:35:07.464Z,69.27
2023-04-15T23:40:45.078Z,68.35
2023-04-15T23:43:14.807Z,68.00
2023-04-15T23:45:47.639Z,67.65
2023-04-15T23:48:24.991Z,68.38
2023-04-15T23:51:01.832Z,68.95
2023-04-15T23:53:51.113Z,68.45
2023-04-15T23:56:18.330Z,68.26
2023-04-15T23:59:23.150Z,67.96
